createdAt,value
2023-05-06T00:02:04.505Z,62.28
2023-05-06T00:04:31.288Z,62.13
2023-05-06T00:06:58.044Z,61.60
2023-05-06T00:09:24.810Z,63.12
2023-05-06T00:11:51.573Z,65.83
2023-05-06T00:14:18.277Z,65.90
2023-05-06T00:16:45.254Z,64.85
2023-05-06T00:19:12.360Z,64.95
2023-05-06T00:21:39.068Z,63.74
2023-05-06T00:24:06.226Z,63.77
2023-05-06T00:26:32.913Z,63.54
2023-05-06T00:28:59.601Z,63.84
2023-05-06T00:31:26.311Z,65.10
2023-05-06T00:33:53.036Z,64.35
2023-05-06T00:36:19.748Z,64.01
2023-05-06T00:38:47.534Z,63.98
2023-05-06T00:41:14.202Z,62.65
2023-05-06T00:43:41.088Z,61.82
2023-05-06T00:46:10.074Z,61.32
2023-05-06T00:48:37.467Z,60.79
2023-05-06T00:51:04.559Z,60.37
2023-05-06T00:53:31.325Z,60.88
2023-05-06T00:55:57.997Z,61.07
2023-05-06T00:58:24.694Z,61.32
2023-05-06T01:00:52.445Z,61.97
2023-05-06T01:03:19.380Z,63.32
2023-05-06T01:06:24.849Z,63.93
2023-05-06T01:09:06.169Z,63.63
2023-05-06T01:11:41.432Z,64.06
2023-05-06T01:14:10.867Z,64.29
2023-05-06T01:16:40.825Z,66.14
2023-05-06T01:19:10.491Z,65.38
2023-05-06T01:21:41.631Z,68.90
2023-05-06T01:24:08.325Z,71.59
2023-05-06T01:26:34.900Z,71.29
2023-05-06T01:29:03.414Z,69.11
2023-05-06T01:31:38.926Z,66.80
2023-05-06T01:34:45.500Z,65.15
2023-05-06T01:37:40.664Z,64.47
2023-05-06T01:40:08.532Z,66.58
2023-05-06T01:42:36.462Z,68.99
2023-05-06T01:45:07.197Z,69.97
2023-05-06T01:47:35.434Z,67.86
2023-05-06T01:50:03.242Z,69.09
2023-05-06T01:52:29.890Z,68.91
2023-05-06T01:54:56.475Z,67.59
2023-05-06T01:57:23.122Z,65.58
2023-05-06T01:59:49.761Z,65.45
2023-05-06T02:02:16.615Z,64.75
2023-05-06T02:04:43.381Z,64.51
2023-05-06T02:07:10.013Z,64.35
2023-05-06T02:09:36.832Z,63.18
2023-05-06T02:12:03.669Z,62.74
2023-05-06T02:14:30.544Z,62.17
2023-05-06T02:16:57.148Z,62.07
2023-05-06T02:19:23.776Z,62.63
2023-05-06T02:21:50.521Z,62.59
2023-05-06T02:24:17.185Z,63.10
2023-05-06T02:26:43.788Z,62.56
2023-05-06T02:29:10.732Z,63.54
2023-05-06T02:31:37.484Z,65.72
2023-05-06T02:34:05.277Z,65.83
2023-05-06T02:36:32.502Z,65.74
2023-05-06T02:38:59.167Z,66.29
2023-05-06T02:41:25.783Z,65.16
2023-05-06T02:43:52.441Z,63.75
2023-05-06T02:46:19.105Z,62.70
2023-05-06T02:48:46.384Z,62.13
2023-05-06T02:51:13.146Z,61.58
2023-05-06T02:53:39.783Z,61.69
2023-05-06T02:56:06.745Z,61.76
2023-05-06T02:58:33.477Z,62.16
2023-05-06T03:01:00.233Z,61.73
2023-05-06T03:03:26.876Z,61.25
2023-05-06T03:05:53.542Z,61.97
2023-05-06T03:08:20.259Z,61.39
2023-05-06T03:10:46.891Z,61.03
2023-05-06T03:13:13.571Z,60.95
2023-05-06T03:15:41.512Z,60.78
2023-05-06T03:18:08.135Z,60.58
2023-05-06T03:20:34.782Z,60.74
2023-05-06T03:23:02.050Z,60.41
2023-05-06T03:25:28.614Z,60.78
2023-05-06T03:27:55.219Z,61.89
2023-05-06T03:30:21.819Z,62.55
2023-05-06T03:32:48.974Z,63.11
2023-05-06T03:35:16.576Z,62.93
2023-05-06T03:37:43.176Z,63.45
2023-05-06T03:40:09.986Z,63.63
2023-05-06T03:42:36.554Z,62.08
2023-05-06T03:45:03.840Z,61.55
2023-05-06T03:47:30.513Z,61.97
2023-05-06T03:49:57.113Z,62.64
2023-05-06T03:52:24.984Z,63.73
2023-05-06T03:54:51.582Z,65.42
2023-05-06T03:57:18.219Z,65.47
2023-05-06T03:59:44.823Z,65.35
2023-05-06T04:02:11.496Z,66.28
2023-05-06T04:04:38.167Z,66.64
2023-05-06T04:07:04.799Z,65.20
2023-05-06T04:09:34.193Z,64.29
2023-05-06T04:12:03.503Z,62.96
2023-05-06T04:14:31.763Z,63.63
2023-05-06T04:16:58.489Z,66.03
2023-05-06T04:19:25.122Z,67.21
2023-05-06T04:21:51.839Z,70.20
2023-05-06T04:24:18.616Z,70.96
2023-05-06T04:26:45.224Z,69.18
2023-05-06T04:29:11.910Z,66.47
2023-05-06T04:31:38.739Z,65.54
2023-05-06T04:34:05.409Z,64.04
2023-05-06T04:36:31.998Z,62.48
2023-05-06T04:38:58.653Z,62.56
2023-05-06T04:41:26.085Z,62.74
2023-05-06T04:43:52.874Z,63.42
2023-05-06T04:46:19.584Z,62.75
2023-05-06T04:48:46.297Z,61.76
2023-05-06T04:51:13.300Z,61.38
2023-05-06T04:53:40.850Z,60.97
2023-05-06T04:56:08.262Z,60.40
2023-05-06T04:58:34.907Z,60.06
2023-05-06T05:01:04.670Z,59.12
2023-05-06T05:03:31.960Z,59.80
2023-05-06T05:05:58.762Z,59.56
2023-05-06T05:08:25.645Z,58.86
2023-05-06T05:10:52.307Z,58.12
2023-05-06T05:13:19.719Z,57.61
2023-05-06T05:15:46.418Z,57.33
2023-05-06T05:18:13.023Z,57.05
2023-05-06T05:20:39.705Z,58.36
2023-05-06T05:23:06.868Z,57.99
2023-05-06T05:25:33.539Z,58.93
2023-05-06T05:28:00.219Z,58.41
2023-05-06T05:30:26.905Z,59.65
2023-05-06T05:32:53.612Z,59.48
2023-05-06T05:35:20.793Z,59.09
2023-05-06T05:37:47.422Z,58.60
2023-05-06T05:40:14.385Z,58.25
2023-05-06T05:42:41.203Z,57.77
2023-05-06T05:45:08.547Z,56.99
2023-05-06T05:47:35.486Z,57.26
2023-05-06T05:50:03.083Z,58.63
2023-05-06T05:52:29.730Z,57.45
2023-05-06T05:54:56.415Z,57.29
2023-05-06T05:57:23.159Z,56.94
2023-05-06T05:59:49.790Z,56.14
2023-05-06T06:02:16.504Z,57.15
2023-05-06T06:04:43.155Z,56.82
2023-05-06T06:07:10.168Z,57.29
2023-05-06T06:09:36.864Z,58.48
2023-05-06T06:12:03.972Z,58.41
2023-05-06T06:14:30.672Z,57.96
2023-05-06T06:16:57.312Z,57.77
2023-05-06T06:19:24.221Z,58.19
2023-05-06T06:21:50.860Z,58.83
2023-05-06T06:24:17.556Z,58.51
2023-05-06T06:26:44.157Z,58.60
2023-05-06T06:29:10.861Z,59.93
2023-05-06T06:31:39.727Z,59.10
2023-05-06T06:34:09.016Z,61.15
2023-05-06T06:36:35.748Z,60.56
2023-05-06T06:39:02.356Z,60.13
2023-05-06T06:41:28.986Z,60.34
2023-05-06T06:43:55.889Z,59.89
2023-05-06T06:46:22.622Z,59.58
2023-05-06T06:48:49.293Z,58.66
2023-05-06T06:51:18.611Z,60.21
2023-05-06T06:53:48.311Z,60.58
2023-05-06T06:56:16.045Z,60.55
2023-05-06T06:58:42.744Z,59.47
2023-05-06T07:01:10.200Z,58.74
2023-05-06T07:03:37.095Z,58.40
2023-05-06T07:06:04.088Z,60.01
2023-05-06T07:08:30.782Z,58.31
2023-05-06T07:10:57.439Z,58.06
2023-05-06T07:13:24.439Z,57.08
2023-05-06T07:15:51.123Z,56.42
2023-05-06T07:18:17.785Z,57.09
2023-05-06T07:20:44.389Z,56.16
2023-05-06T07:23:11.263Z,57.29
2023-05-06T07:25:38.030Z,56.09
2023-05-06T07:28:05.177Z,55.20
2023-05-06T07:30:31.887Z,54.97
2023-05-06T07:32:58.645Z,55.29
2023-05-06T07:35:25.667Z,54.66
2023-05-06T07:37:52.732Z,53.85
2023-05-06T07:40:19.366Z,54.29
2023-05-06T07:42:45.996Z,53.49
2023-05-06T07:45:12.918Z,53.05
2023-05-06T07:47:40.102Z,52.57
2023-05-06T07:50:07.936Z,52.79
2023-05-06T07:52:34.662Z,53.86
2023-05-06T07:55:02.126Z,52.36
2023-05-06T07:57:28.865Z,52.24
2023-05-06T07:59:55.549Z,52.75
2023-05-06T08:02:22.392Z,54.35
2023-05-06T08:04:51.511Z,52.89
2023-05-06T08:07:18.669Z,53.24
2023-05-06T08:09:45.408Z,54.68
2023-05-06T08:12:12.042Z,54.92
2023-05-06T08:14:38.678Z,54.28
2023-05-06T08:17:05.316Z,53.62
2023-05-06T08:19:32.090Z,53.24
2023-05-06T08:21:58.811Z,54.60
2023-05-06T08:24:25.695Z,54.71
2023-05-06T08:26:52.505Z,52.35
2023-05-06T08:29:19.403Z,51.21
2023-05-06T08:31:46.827Z,51.20
2023-05-06T08:34:13.564Z,52.69
2023-05-06T08:36:40.198Z,52.81
2023-05-06T08:39:06.896Z,52.23
2023-05-06T08:41:35.839Z,52.25
2023-05-06T08:44:03.686Z,52.44
2023-05-06T08:46:31.121Z,52.02
2023-05-06T08:48:59.123Z,52.21
2023-05-06T08:51:32.774Z,52.46
2023-05-06T08:54:04.087Z,52.20
2023-05-06T08:56:34.792Z,52.63
2023-05-06T08:59:02.552Z,53.11
2023-05-06T09:01:29.398Z,53.57
2023-05-06T09:03:58.349Z,52.94
2023-05-06T09:06:25.306Z,51.55
2023-05-06T09:08:52.049Z,50.65
2023-05-06T09:11:29.844Z,52.31
2023-05-06T09:14:17.649Z,52.12
2023-05-06T09:16:46.876Z,50.77
2023-05-06T09:19:14.173Z,51.16
2023-05-06T09:21:46.150Z,49.93
2023-05-06T09:24:14.342Z,49.32
2023-05-06T09:26:43.089Z,51.22
2023-05-06T09:29:10.214Z,49.71
2023-05-06T09:31:45.661Z,48.99
2023-05-06T09:34:12.894Z,48.94
2023-05-06T09:36:39.855Z,49.00
2023-05-06T09:39:07.470Z,47.94
2023-05-06T09:41:34.157Z,47.05
2023-05-06T09:44:01.465Z,46.13
2023-05-06T09:46:28.307Z,44.97
2023-05-06T09:48:58.279Z,45.37
2023-05-06T09:51:27.818Z,48.29
2023-05-06T09:53:57.056Z,48.88
2023-05-06T09:56:24.954Z,47.24
2023-05-06T09:58:54.574Z,48.69
2023-05-06T10:01:35.528Z,47.44
2023-05-06T10:04:08.716Z,46.19
2023-05-06T10:06:36.917Z,45.59
2023-05-06T10:09:06.246Z,44.76
2023-05-06T10:11:33.493Z,46.17
2023-05-06T10:14:02.116Z,45.04
2023-05-06T10:16:29.646Z,46.17
2023-05-06T10:18:57.550Z,45.72
2023-05-06T10:21:27.795Z,46.81
2023-05-06T10:24:01.790Z,45.32
2023-05-06T10:26:31.589Z,44.01
2023-05-06T10:29:02.962Z,45.30
2023-05-06T10:31:30.914Z,46.95
2023-05-06T10:34:03.050Z,45.89
2023-05-06T10:36:32.177Z,44.30
2023-05-06T10:39:00.854Z,44.51
2023-05-06T10:41:29.399Z,44.82
2023-05-06T10:43:57.627Z,45.13
2023-05-06T10:46:29.200Z,44.70
2023-05-06T10:49:04.925Z,44.78
2023-05-06T10:51:38.132Z,43.93
2023-05-06T10:54:30.905Z,43.73
2023-05-06T10:56:58.275Z,42.76
2023-05-06T10:59:26.516Z,42.34
2023-05-06T11:01:57.546Z,42.97
2023-05-06T11:04:24.343Z,42.89
2023-05-06T11:06:52.949Z,41.72
2023-05-06T11:09:24.451Z,41.93
2023-05-06T11:12:00.493Z,42.17
2023-05-06T11:14:29.685Z,41.03
2023-05-06T11:16:58.705Z,40.20
2023-05-06T11:19:27.363Z,41.77
2023-05-06T11:21:57.595Z,40.46
2023-05-06T11:24:29.471Z,40.43
2023-05-06T11:26:58.409Z,38.80
2023-05-06T11:29:25.553Z,37.98
2023-05-06T11:31:54.207Z,37.44
2023-05-06T11:34:23.583Z,37.49
2023-05-06T11:36:54.288Z,38.42
2023-05-06T11:39:21.152Z,38.73
2023-05-06T11:41:47.905Z,37.16
2023-05-06T11:44:24.623Z,36.59
2023-05-06T11:46:51.507Z,36.65
2023-05-06T11:49:18.236Z,36.70
2023-05-06T11:51:46.052Z,36.51
2023-05-06T11:54:15.018Z,38.43
2023-05-06T11:56:59.569Z,37.64
2023-05-06T11:59:30.528Z,37.34
2023-05-06T12:02:02.419Z,36.87
2023-05-06T12:04:37.898Z,38.79
2023-05-06T12:07:07.665Z,38.25
2023-05-06T12:09:36.072Z,39.41
2023-05-06T12:12:04.620Z,39.01
2023-05-06T12:14:32.111Z,38.79
2023-05-06T12:16:58.913Z,37.19
2023-05-06T12:19:26.633Z,36.52
2023-05-06T12:21:53.337Z,36.84
2023-05-06T12:24:30.013Z,35.19
2023-05-06T12:26:56.856Z,36.28
2023-05-06T12:29:23.567Z,37.40
2023-05-06T12:31:50.229Z,37.21
2023-05-06T12:34:18.576Z,36.66
2023-05-06T12:36:46.951Z,36.39
2023-05-06T12:39:14.517Z,35.21
2023-05-06T12:41:43.424Z,35.35
2023-05-06T12:44:36.372Z,35.88
2023-05-06T12:47:19.458Z,35.27
2023-05-06T12:49:59.383Z,35.67
2023-05-06T12:52:28.600Z,35.19
2023-05-06T12:54:56.394Z,37.56
2023-05-06T12:57:23.291Z,38.51
2023-05-06T12:59:50.719Z,39.45
2023-05-06T13:02:17.694Z,39.06
2023-05-06T13:04:46.762Z,38.87
2023-05-06T13:07:13.451Z,39.62
2023-05-06T13:09:40.083Z,38.97
2023-05-06T13:12:07.325Z,38.02
2023-05-06T13:14:34.015Z,38.15
2023-05-06T13:17:01.368Z,38.65
2023-05-06T13:19:33.029Z,37.99
2023-05-06T13:22:00.929Z,38.20
2023-05-06T13:24:28.117Z,37.73
2023-05-06T13:26:56.405Z,37.83
2023-05-06T13:29:23.904Z,39.05
2023-05-06T13:31:51.629Z,38.77
2023-05-06T13:34:18.882Z,39.48
2023-05-06T13:36:46.769Z,38.90
2023-05-06T13:39:13.433Z,38.64
2023-05-06T13:41:40.102Z,38.47
2023-05-06T13:44:06.705Z,39.85
2023-05-06T13:46:33.411Z,39.76
2023-05-06T13:49:00.142Z,41.14
2023-05-06T13:51:29.971Z,40.61
2023-05-06T13:53:56.673Z,40.93
2023-05-06T13:56:23.305Z,39.31
2023-05-06T13:58:50.007Z,39.91
2023-05-06T14:01:16.681Z,40.24
2023-05-06T14:03:43.309Z,40.29
2023-05-06T14:06:09.981Z,39.75
2023-05-06T14:08:36.664Z,40.07
2023-05-06T14:11:03.474Z,40.36
2023-05-06T14:13:31.561Z,39.48
2023-05-06T14:15:58.680Z,39.53
2023-05-06T14:18:28.985Z,39.64
2023-05-06T14:20:56.318Z,38.54
2023-05-06T14:23:22.925Z,39.18
2023-05-06T14:25:49.709Z,39.49
2023-05-06T14:28:16.679Z,38.66
2023-05-06T14:30:43.391Z,37.46
2023-05-06T14:33:10.437Z,36.96
2023-05-06T14:35:41.240Z,37.44
2023-05-06T14:38:08.311Z,35.87
2023-05-06T14:40:36.913Z,36.82
2023-05-06T14:43:04.204Z,36.25
2023-05-06T14:45:31.152Z,35.68
2023-05-06T14:47:58.103Z,35.99
2023-05-06T14:50:24.808Z,35.94
2023-05-06T14:52:51.476Z,36.41
2023-05-06T14:55:18.397Z,36.50
2023-05-06T14:57:45.078Z,37.46
2023-05-06T15:00:12.814Z,37.21
2023-05-06T15:02:40.822Z,36.02
2023-05-06T15:05:12.260Z,36.23
2023-05-06T15:07:39.333Z,36.76
2023-05-06T15:10:06.233Z,39.14
2023-05-06T15:12:33.591Z,38.54
2023-05-06T15:15:00.265Z,38.66
2023-05-06T15:17:27.072Z,40.77
2023-05-06T15:19:53.912Z,39.45
2023-05-06T15:22:20.528Z,39.65
2023-05-06T15:24:47.255Z,39.02
2023-05-06T15:27:15.206Z,38.77
2023-05-06T15:29:41.823Z,39.81
2023-05-06T15:32:08.649Z,39.09
2023-05-06T15:34:35.362Z,39.00
2023-05-06T15:37:02.216Z,38.79
2023-05-06T15:39:29.049Z,39.36
2023-05-06T15:41:58.347Z,39.12
2023-05-06T15:46:53.270Z,38.48
2023-05-06T15:49:47.396Z,39.30
2023-05-06T15:52:06.577Z,39.56
2023-05-06T15:54:34.792Z,40.38
2023-05-06T15:57:07.270Z,39.51
2023-05-06T15:59:33.987Z,39.84
2023-05-06T16:02:26.414Z,40.04
2023-05-06T16:04:47.757Z,39.95
2023-05-06T16:07:15.223Z,39.30
2023-05-06T16:09:42.865Z,38.73
2023-05-06T16:12:10.180Z,38.57
2023-05-06T16:14:36.845Z,38.99
2023-05-06T16:17:03.600Z,40.08
2023-05-06T16:19:35.067Z,39.28
2023-05-06T16:22:02.510Z,39.76
2023-05-06T16:24:29.140Z,39.53
2023-05-06T16:26:56.256Z,40.56
2023-05-06T16:29:23.036Z,41.03
2023-05-06T16:31:49.824Z,40.62
2023-05-06T16:34:16.588Z,40.54
2023-05-06T16:36:43.715Z,41.62
2023-05-06T16:39:10.350Z,40.91
2023-05-06T16:41:36.924Z,40.60
2023-05-06T16:44:03.618Z,40.51
2023-05-06T16:46:30.394Z,41.53
2023-05-06T16:48:57.052Z,41.59
2023-05-06T16:51:24.229Z,42.14
2023-05-06T16:53:51.080Z,41.26
2023-05-06T16:56:17.963Z,41.83
2023-05-06T16:58:44.597Z,42.36
2023-05-06T17:01:11.821Z,42.74
2023-05-06T17:03:38.724Z,42.76
2023-05-06T17:06:05.710Z,42.51
2023-05-06T17:08:36.149Z,42.37
2023-05-06T17:11:06.790Z,42.81
2023-05-06T17:13:34.045Z,43.25
2023-05-06T17:16:00.936Z,42.67
2023-05-06T17:18:27.724Z,42.62
2023-05-06T17:20:56.476Z,42.74
2023-05-06T17:23:23.997Z,43.36
2023-05-06T17:25:51.074Z,43.78
2023-05-06T17:28:18.910Z,44.61
2023-05-06T17:30:45.997Z,44.13
2023-05-06T17:33:12.962Z,43.77
2023-05-06T17:35:39.718Z,44.24
2023-05-06T17:38:06.456Z,44.28
2023-05-06T17:40:33.173Z,44.12
2023-05-06T17:42:59.799Z,44.13
2023-05-06T17:45:28.469Z,44.39
2023-05-06T17:47:56.505Z,45.11
2023-05-06T17:50:23.302Z,45.08
2023-05-06T17:52:52.354Z,45.83
2023-05-06T17:55:21.509Z,45.45
2023-05-06T17:57:48.756Z,45.79
2023-05-06T18:00:16.629Z,46.43
2023-05-06T18:02:44.049Z,46.21
2023-05-06T18:05:11.623Z,45.75
2023-05-06T18:07:38.625Z,45.83
2023-05-06T18:10:06.084Z,46.12
2023-05-06T18:12:32.769Z,46.01
2023-05-06T18:15:00.374Z,45.94
2023-05-06T18:17:27.074Z,46.07
2023-05-06T18:19:53.756Z,46.40
2023-05-06T18:22:20.363Z,46.21
2023-05-06T18:24:46.983Z,46.62
2023-05-06T18:27:13.592Z,46.74
2023-05-06T18:29:41.436Z,46.38
2023-05-06T18:32:08.374Z,46.66
2023-05-06T18:34:35.378Z,47.78
2023-05-06T18:37:02.164Z,47.44
2023-05-06T18:39:28.838Z,46.97
2023-05-06T18:41:55.464Z,47.05
2023-05-06T18:44:22.026Z,46.84
2023-05-06T18:46:48.777Z,47.32
2023-05-06T18:49:15.474Z,47.04
2023-05-06T18:51:42.082Z,47.33
2023-05-06T18:54:08.748Z,47.26
2023-05-06T18:56:36.897Z,47.22
2023-05-06T18:59:03.593Z,47.10
2023-05-06T19:01:30.556Z,47.26
2023-05-06T19:03:57.640Z,47.58
2023-05-06T19:06:24.302Z,47.38
2023-05-06T19:08:51.040Z,47.35
2023-05-06T19:11:21.278Z,47.52
2023-05-06T19:13:47.981Z,47.46
2023-05-06T19:16:14.713Z,47.77
2023-05-06T19:18:41.596Z,47.68
2023-05-06T19:21:15.030Z,47.85
2023-05-06T19:23:42.030Z,48.12
2023-05-06T19:26:11.227Z,48.46
2023-05-06T19:28:39.444Z,48.69
2023-05-06T19:31:07.971Z,48.44
2023-05-06T19:33:34.764Z,48.35
2023-05-06T19:36:02.182Z,48.10
2023-05-06T19:38:29.104Z,48.10
2023-05-06T19:40:56.416Z,47.85
2023-05-06T19:43:23.587Z,47.87
2023-05-06T19:45:50.534Z,47.86
2023-05-06T19:48:18.003Z,47.99
2023-05-06T19:50:44.722Z,47.65
2023-05-06T19:53:11.543Z,47.36
2023-05-06T19:55:38.147Z,47.33
2023-05-06T19:58:04.900Z,47.22
2023-05-06T20:00:31.524Z,47.38
2023-05-06T20:02:59.530Z,47.45
2023-05-06T20:05:32.253Z,47.36
2023-05-06T20:08:02.314Z,48.00
2023-05-06T20:10:29.710Z,48.40
2023-05-06T20:12:58.831Z,47.93
2023-05-06T20:15:26.638Z,47.96
2023-05-06T20:17:53.389Z,47.89
2023-05-06T20:20:20.198Z,47.34
2023-05-06T20:22:46.810Z,46.99
2023-05-06T20:25:16.303Z,47.83
2023-05-06T20:27:46.441Z,47.45
2023-05-06T20:30:13.297Z,47.17
2023-05-06T20:32:40.712Z,47.05
2023-05-06T20:35:07.852Z,46.56
2023-05-06T20:37:35.448Z,46.70
2023-05-06T20:40:04.919Z,46.43
2023-05-06T20:42:31.893Z,46.70
2023-05-06T20:44:59.165Z,46.56
2023-05-06T20:47:26.265Z,46.83
2023-05-06T20:49:53.027Z,46.84
2023-05-06T20:52:21.481Z,46.67
2023-05-06T20:54:48.493Z,47.11
2023-05-06T20:57:16.488Z,47.28
2023-05-06T20:59:43.296Z,47.98
2023-05-06T21:02:10.379Z,47.64
2023-05-06T21:04:37.288Z,47.80
2023-05-06T21:07:03.923Z,48.06
2023-05-06T21:09:30.634Z,48.02
2023-05-06T21:11:58.492Z,48.44
2023-05-06T21:14:26.585Z,48.64
2023-05-06T21:16:53.811Z,48.71
2023-05-06T21:19:21.077Z,49.47
2023-05-06T21:21:48.344Z,49.02
2023-05-06T21:24:15.392Z,49.40
2023-05-06T21:26:42.143Z,49.13
2023-05-06T21:29:08.789Z,49.69
2023-05-06T21:31:35.560Z,50.37
2023-05-06T21:34:03.539Z,50.55
2023-05-06T21:36:30.269Z,50.59
2023-05-06T21:39:11.955Z,50.26
2023-05-06T21:41:39.268Z,50.47
2023-05-06T21:44:07.656Z,49.58
2023-05-06T21:46:34.961Z,49.93
2023-05-06T21:49:01.935Z,49.22
2023-05-06T21:51:32.320Z,48.59
2023-05-06T21:53:59.171Z,49.51
2023-05-06T21:56:25.963Z,49.25
2023-05-06T21:58:54.666Z,48.81
2023-05-06T22:01:22.184Z,48.50
2023-05-06T22:03:49.078Z,48.42
2023-05-06T22:06:16.023Z,48.51
2023-05-06T22:08:42.731Z,48.32
2023-05-06T22:11:09.498Z,48.27
2023-05-06T22:13:36.297Z,48.62
2023-05-06T22:16:04.144Z,48.53
2023-05-06T22:18:32.164Z,48.55
2023-05-06T22:20:59.946Z,48.49
2023-05-06T22:23:28.068Z,48.22
2023-05-06T22:25:54.770Z,48.13
2023-05-06T22:28:21.759Z,48.32
2023-05-06T22:30:48.531Z,48.32
2023-05-06T22:33:15.173Z,48.62
2023-05-06T22:35:41.866Z,48.48
2023-05-06T22:38:08.944Z,49.17
2023-05-06T22:40:35.615Z,49.32
2023-05-06T22:43:02.250Z,49.26
2023-05-06T22:45:28.886Z,49.17
2023-05-06T22:47:56.012Z,49.25
2023-05-06T22:50:22.774Z,48.92
2023-05-06T22:52:49.380Z,49.49
2023-05-06T22:55:16.253Z,49.51
2023-05-06T22:57:42.938Z,49.52
2023-05-06T23:00:12.537Z,49.65
2023-05-06T23:02:39.925Z,49.48
2023-05-06T23:05:06.820Z,51.12
2023-05-06T23:07:33.645Z,50.60
2023-05-06T23:10:00.560Z,50.60
2023-05-06T23:12:28.114Z,50.39
2023-05-06T23:14:54.710Z,50.68
2023-05-06T23:17:21.376Z,50.67
2023-05-06T23:19:48.078Z,50.92
2023-05-06T23:22:14.705Z,51.06
2023-05-06T23:24:42.306Z,51.04
2023-05-06T23:27:09.001Z,51.43
2023-05-06T23:29:35.740Z,51.43
2023-05-06T23:32:02.913Z,52.27
2023-05-06T23:34:29.523Z,51.91
2023-05-06T23:36:56.728Z,52.00
2023-05-06T23:39:23.422Z,51.96
2023-05-06T23:41:50.075Z,51.81
2023-05-06T23:44:16.892Z,52.22
2023-05-06T23:46:43.649Z,52.79
2023-05-06T23:49:10.362Z,52.29
2023-05-06T23:51:37.118Z,52.53
2023-05-06T23:54:03.862Z,53.08
2023-05-06T23:56:30.562Z,52.71
2023-05-06T23:58:57.202Z,54.06
